Peoria Heights, Illinois
Current Conditions -  °F | °C
As of 12:54 PM on Friday 24 Oct 2014 (Local Time) from KPIA Reporting Station
Haze Haze  
Wind Chill: 63°   Ceiling: Unl
Heat Index: 63°   Visibility: 6mi
Dew Point: 53°   Wind: 6mph
Humidity: 70%   Direction: 240°WSW
Pressure: 30.06"   Gusts: NA
Location:  40.7452°N, 89.5738°W
Report Text: KPIA 241754Z 24005KT 6SM HZ CLR 17/12 A3006 RMK AO2 SLP178 T01720117 10172 20078 58011
Loading
Personal Weather Stations






























Interactive Weather Map New forecast layout! Learn more

10-Day Weather Forecast

Advertisements
Track Severe Weather on mobile